sensor_id;sensor_type;location;lat;lon;timestamp;P1;durP1;ratioP1;P2;durP2;ratioP2
56667;SDS011;42542;48.360;10.958;2022-08-11T00:00:36;8.95;;;3.30;;
56667;SDS011;42542;48.360;10.958;2022-08-11T00:03:45;7.68;;;3.33;;
56667;SDS011;42542;48.360;10.958;2022-08-11T00:06:49;6.82;;;3.20;;
56667;SDS011;42542;48.360;10.958;2022-08-11T00:09:52;9.17;;;3.57;;
56667;SDS011;42542;48.360;10.958;2022-08-11T00:12:57;7.97;;;3.33;;
56667;SDS011;42542;48.360;10.958;2022-08-11T00:16:01;7.22;;;3.40;;
56667;SDS011;42542;48.360;10.958;2022-08-11T00:19:04;7.60;;;3.30;;
56667;SDS011;42542;48.360;10.958;2022-08-11T00:22:06;7.70;;;3.47;;
56667;SDS011;42542;48.360;10.958;2022-08-11T00:25:16;7.23;;;3.30;;
56667;SDS011;42542;48.360;10.958;2022-08-11T00:28:24;6.75;;;3.58;;
56667;SDS011;42542;48.360;10.958;2022-08-11T00:31:31;7.68;;;3.47;;
56667;SDS011;42542;48.360;10.958;2022-08-11T00:34:36;8.90;;;3.67;;
56667;SDS011;42542;48.360;10.958;2022-08-11T00:37:43;7.68;;;3.70;;
56667;SDS011;42542;48.360;10.958;2022-08-11T00:55:22;7.85;;;3.90;;
56667;SDS011;42542;48.360;10.958;2022-08-11T01:01:53;11.65;;;3.83;;
56667;SDS011;42542;48.360;10.958;2022-08-11T01:05:05;7.95;;;3.83;;
56667;SDS011;42542;48.360;10.958;2022-08-11T01:37:28;7.22;;;3.67;;
56667;SDS011;42542;48.360;10.958;2022-08-11T01:40:52;7.40;;;3.85;;
56667;SDS011;42542;48.360;10.958;2022-08-11T01:48:03;8.55;;;3.85;;
56667;SDS011;42542;48.360;10.958;2022-08-11T01:51:18;8.50;;;3.90;;
56667;SDS011;42542;48.360;10.958;2022-08-11T01:54:56;6.90;;;3.67;;
56667;SDS011;42542;48.360;10.958;2022-08-11T02:11:54;7.55;;;4.00;;
56667;SDS011;42542;48.360;10.958;2022-08-11T02:18:27;7.00;;;3.80;;
56667;SDS011;42542;48.360;10.958;2022-08-11T02:22:05;7.90;;;3.88;;
56667;SDS011;42542;48.360;10.958;2022-08-11T02:35:50;8.10;;;4.07;;
56667;SDS011;42542;48.360;10.958;2022-08-11T02:39:07;8.38;;;4.00;;
56667;SDS011;42542;48.360;10.958;2022-08-11T02:42:29;7.60;;;4.23;;
56667;SDS011;42542;48.360;10.958;2022-08-11T02:52:14;8.77;;;4.25;;
56667;SDS011;42542;48.360;10.958;2022-08-11T03:12:12;8.77;;;4.35;;
56667;SDS011;42542;48.360;10.958;2022-08-11T03:22:33;9.88;;;4.78;;
56667;SDS011;42542;48.360;10.958;2022-08-11T03:29:18;9.18;;;4.53;;
56667;SDS011;42542;48.360;10.958;2022-08-11T03:32:29;10.17;;;4.40;;
56667;SDS011;42542;48.360;10.958;2022-08-11T03:35:44;12.45;;;4.63;;
56667;SDS011;42542;48.360;10.958;2022-08-11T03:42:24;9.85;;;4.28;;
56667;SDS011;42542;48.360;10.958;2022-08-11T03:45:46;8.10;;;4.53;;
56667;SDS011;42542;48.360;10.958;2022-08-11T03:49:18;7.97;;;4.33;;
56667;SDS011;42542;48.360;10.958;2022-08-11T04:19:51;9.57;;;4.68;;
56667;SDS011;42542;48.360;10.958;2022-08-11T04:51:43;9.40;;;4.53;;
56667;SDS011;42542;48.360;10.958;2022-08-11T04:59:05;9.53;;;4.97;;
56667;SDS011;42542;48.360;10.958;2022-08-11T05:06:09;9.55;;;5.00;;
56667;SDS011;42542;48.360;10.958;2022-08-11T05:09:27;12.18;;;4.65;;
56667;SDS011;42542;48.360;10.958;2022-08-11T05:15:55;10.00;;;4.70;;
56667;SDS011;42542;48.360;10.958;2022-08-11T05:19:19;9.00;;;4.63;;
56667;SDS011;42542;48.360;10.958;2022-08-11T05:22:46;8.52;;;4.90;;
56667;SDS011;42542;48.360;10.958;2022-08-11T05:26:08;8.73;;;4.85;;
56667;SDS011;42542;48.360;10.958;2022-08-11T05:29:56;9.75;;;5.20;;
56667;SDS011;42542;48.360;10.958;2022-08-11T05:33:53;9.90;;;4.90;;
56667;SDS011;42542;48.360;10.958;2022-08-11T05:37:16;9.52;;;4.80;;
56667;SDS011;42542;48.360;10.958;2022-08-11T05:40:28;10.73;;;5.00;;
56667;SDS011;42542;48.360;10.958;2022-08-11T05:43:53;9.18;;;5.22;;
56667;SDS011;42542;48.360;10.958;2022-08-11T05:47:25;12.00;;;4.90;;
56667;SDS011;42542;48.360;10.958;2022-08-11T05:50:53;9.47;;;4.90;;
56667;SDS011;42542;48.360;10.958;2022-08-11T05:54:17;10.00;;;4.88;;
56667;SDS011;42542;48.360;10.958;2022-08-11T05:57:39;9.27;;;4.60;;
56667;SDS011;42542;48.360;10.958;2022-08-11T06:00:52;8.25;;;4.88;;
56667;SDS011;42542;48.360;10.958;2022-08-11T06:03:54;9.80;;;5.18;;
56667;SDS011;42542;48.360;10.958;2022-08-11T06:07:16;8.50;;;4.70;;
56667;SDS011;42542;48.360;10.958;2022-08-11T06:10:31;9.40;;;5.03;;
56667;SDS011;42542;48.360;10.958;2022-08-11T06:13:42;9.48;;;4.75;;
56667;SDS011;42542;48.360;10.958;2022-08-11T06:16:47;11.65;;;4.80;;
56667;SDS011;42542;48.360;10.958;2022-08-11T06:19:50;9.57;;;4.80;;
56667;SDS011;42542;48.360;10.958;2022-08-11T06:23:07;9.90;;;4.90;;
56667;SDS011;42542;48.360;10.958;2022-08-11T06:26:10;9.48;;;5.20;;
56667;SDS011;42542;48.360;10.958;2022-08-11T06:29:14;8.98;;;4.80;;
56667;SDS011;42542;48.360;10.958;2022-08-11T06:32:20;8.63;;;4.65;;
56667;SDS011;42542;48.360;10.958;2022-08-11T06:45:47;8.05;;;4.60;;
56667;SDS011;42542;48.360;10.958;2022-08-11T06:49:01;10.02;;;4.35;;
56667;SDS011;42542;48.360;10.958;2022-08-11T06:52:05;9.43;;;4.50;;
56667;SDS011;42542;48.360;10.958;2022-08-11T06:55:30;9.30;;;4.53;;
56667;SDS011;42542;48.360;10.958;2022-08-11T06:58:57;8.57;;;4.63;;
56667;SDS011;42542;48.360;10.958;2022-08-11T07:02:29;9.57;;;4.32;;
56667;SDS011;42542;48.360;10.958;2022-08-11T07:05:49;10.25;;;4.40;;
56667;SDS011;42542;48.360;10.958;2022-08-11T07:09:07;9.00;;;4.18;;
56667;SDS011;42542;48.360;10.958;2022-08-11T07:12:42;8.20;;;4.07;;
56667;SDS011;42542;48.360;10.958;2022-08-11T07:16:05;8.07;;;4.20;;
56667;SDS011;42542;48.360;10.958;2022-08-11T07:19:15;8.05;;;4.35;;
56667;SDS011;42542;48.360;10.958;2022-08-11T07:22:42;10.60;;;4.22;;
56667;SDS011;42542;48.360;10.958;2022-08-11T07:26:13;8.00;;;4.07;;
56667;SDS011;42542;48.360;10.958;2022-08-11T07:29:34;7.50;;;4.00;;
56667;SDS011;42542;48.360;10.958;2022-08-11T07:32:49;8.27;;;3.80;;
56667;SDS011;42542;48.360;10.958;2022-08-11T07:35:55;9.43;;;3.97;;
56667;SDS011;42542;48.360;10.958;2022-08-11T07:39:00;8.82;;;4.00;;
56667;SDS011;42542;48.360;10.958;2022-08-11T07:42:06;11.27;;;4.35;;
56667;SDS011;42542;48.360;10.958;2022-08-11T07:45:10;8.50;;;3.63;;
56667;SDS011;42542;48.360;10.958;2022-08-11T07:48:32;8.60;;;4.00;;
56667;SDS011;42542;48.360;10.958;2022-08-11T07:51:53;8.57;;;4.05;;
56667;SDS011;42542;48.360;10.958;2022-08-11T07:55:15;8.95;;;3.80;;
56667;SDS011;42542;48.360;10.958;2022-08-11T07:58:40;8.20;;;3.88;;
56667;SDS011;42542;48.360;10.958;2022-08-11T08:02:09;9.77;;;4.10;;
56667;SDS011;42542;48.360;10.958;2022-08-11T08:05:31;8.18;;;3.90;;
56667;SDS011;42542;48.360;10.958;2022-08-11T08:08:53;7.07;;;3.88;;
56667;SDS011;42542;48.360;10.958;2022-08-11T08:12:14;6.93;;;3.63;;
56667;SDS011;42542;48.360;10.958;2022-08-11T08:15:34;7.40;;;3.70;;
56667;SDS011;42542;48.360;10.958;2022-08-11T08:18:55;9.03;;;3.80;;
56667;SDS011;42542;48.360;10.958;2022-08-11T08:21:57;9.75;;;3.78;;
56667;SDS011;42542;48.360;10.958;2022-08-11T08:25:19;7.60;;;3.70;;
56667;SDS011;42542;48.360;10.958;2022-08-11T08:28:21;7.28;;;3.67;;
56667;SDS011;42542;48.360;10.958;2022-08-11T08:31:23;7.22;;;3.38;;
56667;SDS011;42542;48.360;10.958;2022-08-11T08:34:26;7.53;;;3.67;;
56667;SDS011;42542;48.360;10.958;2022-08-11T08:37:32;6.93;;;3.50;;
56667;SDS011;42542;48.360;10.958;2022-08-11T08:40:49;7.13;;;3.90;;
56667;SDS011;42542;48.360;10.958;2022-08-11T08:44:00;7.28;;;3.72;;
56667;SDS011;42542;48.360;10.958;2022-08-11T08:47:27;9.18;;;3.70;;
56667;SDS011;42542;48.360;10.958;2022-08-11T08:50:44;6.33;;;3.53;;
56667;SDS011;42542;48.360;10.958;2022-08-11T08:54:19;7.80;;;3.78;;
56667;SDS011;42542;48.360;10.958;2022-08-11T08:57:29;7.18;;;3.35;;
56667;SDS011;42542;48.360;10.958;2022-08-11T09:00:41;6.85;;;3.40;;
56667;SDS011;42542;48.360;10.958;2022-08-11T09:03:46;7.10;;;3.33;;
56667;SDS011;42542;48.360;10.958;2022-08-11T09:07:08;7.43;;;3.60;;
56667;SDS011;42542;48.360;10.958;2022-08-11T09:10:17;8.93;;;3.40;;
56667;SDS011;42542;48.360;10.958;2022-08-11T09:13:22;8.05;;;3.67;;
56667;SDS011;42542;48.360;10.958;2022-08-11T09:16:24;6.13;;;3.20;;
56667;SDS011;42542;48.360;10.958;2022-08-11T09:19:26;11.45;;;3.63;;
56667;SDS011;42542;48.360;10.958;2022-08-11T09:22:29;10.50;;;3.50;;
56667;SDS011;42542;48.360;10.958;2022-08-11T09:26:12;6.95;;;3.30;;
56667;SDS011;42542;48.360;10.958;2022-08-11T09:29:34;9.00;;;3.33;;
56667;SDS011;42542;48.360;10.958;2022-08-11T09:32:38;6.60;;;3.33;;
56667;SDS011;42542;48.360;10.958;2022-08-11T09:35:42;8.93;;;3.42;;
56667;SDS011;42542;48.360;10.958;2022-08-11T09:38:46;8.70;;;3.50;;
56667;SDS011;42542;48.360;10.958;2022-08-11T09:42:07;9.10;;;3.40;;
56667;SDS011;42542;48.360;10.958;2022-08-11T09:45:16;8.02;;;3.58;;
56667;SDS011;42542;48.360;10.958;2022-08-11T09:48:19;7.10;;;3.35;;
56667;SDS011;42542;48.360;10.958;2022-08-11T09:51:24;7.50;;;3.47;;
56667;SDS011;42542;48.360;10.958;2022-08-11T09:54:32;7.33;;;3.43;;
56667;SDS011;42542;48.360;10.958;2022-08-11T09:57:34;8.27;;;3.30;;
56667;SDS011;42542;48.360;10.958;2022-08-11T10:00:57;7.53;;;3.10;;
56667;SDS011;42542;48.360;10.958;2022-08-11T10:04:03;9.50;;;3.20;;
56667;SDS011;42542;48.360;10.958;2022-08-11T10:07:13;7.10;;;3.20;;
56667;SDS011;42542;48.360;10.958;2022-08-11T10:10:20;8.10;;;3.13;;
56667;SDS011;42542;48.360;10.958;2022-08-11T10:13:25;8.75;;;3.33;;
56667;SDS011;42542;48.360;10.958;2022-08-11T10:16:55;7.15;;;3.35;;
56667;SDS011;42542;48.360;10.958;2022-08-11T10:19:57;7.50;;;3.25;;
56667;SDS011;42542;48.360;10.958;2022-08-11T10:23:05;6.15;;;3.03;;
56667;SDS011;42542;48.360;10.958;2022-08-11T10:26:29;7.17;;;3.40;;
56667;SDS011;42542;48.360;10.958;2022-08-11T10:29:54;7.13;;;3.22;;
56667;SDS011;42542;48.360;10.958;2022-08-11T10:33:16;7.53;;;3.33;;
56667;SDS011;42542;48.360;10.958;2022-08-11T10:36:58;8.57;;;3.20;;
56667;SDS011;42542;48.360;10.958;2022-08-11T10:40:03;9.00;;;3.20;;
56667;SDS011;42542;48.360;10.958;2022-08-11T10:43:07;8.00;;;3.20;;
56667;SDS011;42542;48.360;10.958;2022-08-11T10:46:36;7.85;;;3.30;;
56667;SDS011;42542;48.360;10.958;2022-08-11T10:49:58;7.15;;;3.15;;
56667;SDS011;42542;48.360;10.958;2022-08-11T10:53:19;7.80;;;3.33;;
56667;SDS011;42542;48.360;10.958;2022-08-11T10:56:39;7.63;;;3.13;;
56667;SDS011;42542;48.360;10.958;2022-08-11T11:00:00;7.57;;;3.40;;
56667;SDS011;42542;48.360;10.958;2022-08-11T11:03:03;7.60;;;3.28;;
56667;SDS011;42542;48.360;10.958;2022-08-11T11:07:07;8.32;;;3.25;;
56667;SDS011;42542;48.360;10.958;2022-08-11T11:09:50;8.07;;;3.63;;
56667;SDS011;42542;48.360;10.958;2022-08-11T11:12:58;7.03;;;3.10;;
56667;SDS011;42542;48.360;10.958;2022-08-11T11:16:19;8.60;;;3.10;;
56667;SDS011;42542;48.360;10.958;2022-08-11T11:19:45;6.50;;;3.15;;
56667;SDS011;42542;48.360;10.958;2022-08-11T11:22:50;7.25;;;3.20;;
56667;SDS011;42542;48.360;10.958;2022-08-11T11:29:39;5.50;;;2.90;;
56667;SDS011;42542;48.360;10.958;2022-08-11T11:33:45;7.27;;;3.10;;
56667;SDS011;42542;48.360;10.958;2022-08-11T11:36:26;6.22;;;3.05;;
56667;SDS011;42542;48.360;10.958;2022-08-11T11:39:37;7.53;;;3.22;;
56667;SDS011;42542;48.360;10.958;2022-08-11T11:42:41;7.35;;;3.03;;
56667;SDS011;42542;48.360;10.958;2022-08-11T11:45:44;7.72;;;3.47;;
56667;SDS011;42542;48.360;10.958;2022-08-11T11:48:46;7.37;;;3.10;;
56667;SDS011;42542;48.360;10.958;2022-08-11T11:51:49;10.88;;;3.35;;
56667;SDS011;42542;48.360;10.958;2022-08-11T11:54:54;7.22;;;2.97;;
56667;SDS011;42542;48.360;10.958;2022-08-11T11:58:00;8.40;;;3.20;;
56667;SDS011;42542;48.360;10.958;2022-08-11T12:01:22;7.18;;;3.25;;
56667;SDS011;42542;48.360;10.958;2022-08-11T12:04:25;6.13;;;3.20;;
56667;SDS011;42542;48.360;10.958;2022-08-11T12:07:29;6.65;;;3.20;;
56667;SDS011;42542;48.360;10.958;2022-08-11T12:11:11;6.82;;;3.10;;
56667;SDS011;42542;48.360;10.958;2022-08-11T12:14:32;6.50;;;3.40;;
56667;SDS011;42542;48.360;10.958;2022-08-11T12:17:34;6.78;;;3.20;;
56667;SDS011;42542;48.360;10.958;2022-08-11T12:20:36;7.97;;;3.50;;
56667;SDS011;42542;48.360;10.958;2022-08-11T12:23:39;7.13;;;3.10;;
56667;SDS011;42542;48.360;10.958;2022-08-11T12:27:04;6.65;;;3.22;;
56667;SDS011;42542;48.360;10.958;2022-08-11T12:30:25;6.00;;;3.08;;
56667;SDS011;42542;48.360;10.958;2022-08-11T12:33:27;7.28;;;3.20;;
56667;SDS011;42542;48.360;10.958;2022-08-11T12:36:30;6.27;;;3.17;;
56667;SDS011;42542;48.360;10.958;2022-08-11T12:39:36;6.43;;;2.97;;
56667;SDS011;42542;48.360;10.958;2022-08-11T12:43:19;6.13;;;3.33;;
56667;SDS011;42542;48.360;10.958;2022-08-11T12:46:41;6.18;;;3.05;;
56667;SDS011;42542;48.360;10.958;2022-08-11T12:49:47;6.32;;;3.10;;
56667;SDS011;42542;48.360;10.958;2022-08-11T12:53:27;7.67;;;3.00;;
56667;SDS011;42542;48.360;10.958;2022-08-11T12:56:36;6.72;;;3.10;;
56667;SDS011;42542;48.360;10.958;2022-08-11T12:59:58;7.15;;;3.10;;
56667;SDS011;42542;48.360;10.958;2022-08-11T13:03:20;7.70;;;3.40;;
56667;SDS011;42542;48.360;10.958;2022-08-11T13:06:41;6.45;;;3.22;;
56667;SDS011;42542;48.360;10.958;2022-08-11T13:09:43;7.03;;;3.30;;
56667;SDS011;42542;48.360;10.958;2022-08-11T13:12:46;5.88;;;3.03;;
56667;SDS011;42542;48.360;10.958;2022-08-11T13:15:48;5.78;;;3.10;;
56667;SDS011;42542;48.360;10.958;2022-08-11T13:18:52;6.50;;;3.30;;
56667;SDS011;42542;48.360;10.958;2022-08-11T13:21:54;6.15;;;3.03;;
56667;SDS011;42542;48.360;10.958;2022-08-11T13:24:57;6.30;;;3.20;;
56667;SDS011;42542;48.360;10.958;2022-08-11T13:28:00;6.20;;;2.83;;
56667;SDS011;42542;48.360;10.958;2022-08-11T13:31:03;6.30;;;3.25;;
56667;SDS011;42542;48.360;10.958;2022-08-11T13:34:12;5.85;;;2.90;;
56667;SDS011;42542;48.360;10.958;2022-08-11T13:37:16;6.28;;;3.13;;
56667;SDS011;42542;48.360;10.958;2022-08-11T13:40:41;6.73;;;3.10;;
56667;SDS011;42542;48.360;10.958;2022-08-11T13:43:56;6.75;;;3.00;;
56667;SDS011;42542;48.360;10.958;2022-08-11T13:46:59;7.38;;;3.22;;
56667;SDS011;42542;48.360;10.958;2022-08-11T13:50:05;7.00;;;3.05;;
56667;SDS011;42542;48.360;10.958;2022-08-11T13:53:08;7.95;;;3.00;;
56667;SDS011;42542;48.360;10.958;2022-08-11T13:56:12;9.27;;;2.70;;
56667;SDS011;42542;48.360;10.958;2022-08-11T13:59:14;6.20;;;2.80;;
56667;SDS011;42542;48.360;10.958;2022-08-11T14:02:25;6.63;;;3.10;;
56667;SDS011;42542;48.360;10.958;2022-08-11T14:05:33;6.13;;;3.08;;
56667;SDS011;42542;48.360;10.958;2022-08-11T14:08:40;6.35;;;3.00;;
56667;SDS011;42542;48.360;10.958;2022-08-11T14:11:47;6.97;;;3.17;;
56667;SDS011;42542;48.360;10.958;2022-08-11T14:15:26;5.70;;;2.70;;
56667;SDS011;42542;48.360;10.958;2022-08-11T14:18:32;7.00;;;2.80;;
56667;SDS011;42542;48.360;10.958;2022-08-11T14:21:34;6.03;;;2.63;;
56667;SDS011;42542;48.360;10.958;2022-08-11T14:24:57;6.95;;;2.90;;
56667;SDS011;42542;48.360;10.958;2022-08-11T14:27:59;6.40;;;2.87;;
56667;SDS011;42542;48.360;10.958;2022-08-11T14:31:22;6.35;;;2.80;;
56667;SDS011;42542;48.360;10.958;2022-08-11T14:34:26;5.88;;;2.72;;
56667;SDS011;42542;48.360;10.958;2022-08-11T14:37:34;5.32;;;2.65;;
56667;SDS011;42542;48.360;10.958;2022-08-11T14:40:38;8.00;;;2.95;;
56667;SDS011;42542;48.360;10.958;2022-08-11T14:43:58;8.50;;;2.70;;
56667;SDS011;42542;48.360;10.958;2022-08-11T14:47:19;5.70;;;2.83;;
56667;SDS011;42542;48.360;10.958;2022-08-11T14:50:26;5.97;;;3.05;;
56667;SDS011;42542;48.360;10.958;2022-08-11T14:53:29;6.00;;;2.80;;
56667;SDS011;42542;48.360;10.958;2022-08-11T14:56:32;6.30;;;3.15;;
56667;SDS011;42542;48.360;10.958;2022-08-11T14:59:37;5.80;;;3.23;;
56667;SDS011;42542;48.360;10.958;2022-08-11T15:02:40;5.85;;;3.10;;
56667;SDS011;42542;48.360;10.958;2022-08-11T15:06:01;5.80;;;3.10;;
56667;SDS011;42542;48.360;10.958;2022-08-11T15:09:05;5.40;;;2.80;;
56667;SDS011;42542;48.360;10.958;2022-08-11T15:12:12;5.65;;;2.80;;
56667;SDS011;42542;48.360;10.958;2022-08-11T15:15:44;5.47;;;2.90;;
56667;SDS011;42542;48.360;10.958;2022-08-11T15:19:06;7.18;;;3.00;;
56667;SDS011;42542;48.360;10.958;2022-08-11T15:22:08;6.43;;;2.83;;
56667;SDS011;42542;48.360;10.958;2022-08-11T15:25:29;7.93;;;2.65;;
56667;SDS011;42542;48.360;10.958;2022-08-11T15:28:35;5.22;;;2.80;;
56667;SDS011;42542;48.360;10.958;2022-08-11T15:31:58;6.23;;;2.77;;
56667;SDS011;42542;48.360;10.958;2022-08-11T15:35:22;5.25;;;2.70;;
56667;SDS011;42542;48.360;10.958;2022-08-11T15:38:57;8.63;;;2.83;;
56667;SDS011;42542;48.360;10.958;2022-08-11T15:42:03;5.85;;;2.53;;
56667;SDS011;42542;48.360;10.958;2022-08-11T15:45:28;8.18;;;2.72;;
56667;SDS011;42542;48.360;10.958;2022-08-11T15:48:51;5.50;;;2.60;;
56667;SDS011;42542;48.360;10.958;2022-08-11T15:52:22;5.30;;;2.85;;
56667;SDS011;42542;48.360;10.958;2022-08-11T15:55:30;8.48;;;2.80;;
56667;SDS011;42542;48.360;10.958;2022-08-11T15:58:37;5.85;;;2.70;;
56667;SDS011;42542;48.360;10.958;2022-08-11T16:02:22;7.57;;;2.55;;
56667;SDS011;42542;48.360;10.958;2022-08-11T16:05:45;6.50;;;2.70;;
56667;SDS011;42542;48.360;10.958;2022-08-11T16:08:53;6.60;;;2.70;;
56667;SDS011;42542;48.360;10.958;2022-08-11T16:12:01;6.03;;;2.60;;
56667;SDS011;42542;48.360;10.958;2022-08-11T16:15:05;6.45;;;2.72;;
56667;SDS011;42542;48.360;10.958;2022-08-11T16:18:30;5.78;;;2.72;;
56667;SDS011;42542;48.360;10.958;2022-08-11T16:21:41;6.23;;;2.90;;
56667;SDS011;42542;48.360;10.958;2022-08-11T16:24:44;6.03;;;2.88;;
56667;SDS011;42542;48.360;10.958;2022-08-11T16:28:09;6.97;;;2.50;;
56667;SDS011;42542;48.360;10.958;2022-08-11T16:31:16;5.85;;;2.83;;
56667;SDS011;42542;48.360;10.958;2022-08-11T16:34:19;5.93;;;3.00;;
56667;SDS011;42542;48.360;10.958;2022-08-11T16:37:40;6.83;;;3.10;;
56667;SDS011;42542;48.360;10.958;2022-08-11T16:41:16;6.80;;;3.00;;
56667;SDS011;42542;48.360;10.958;2022-08-11T16:44:42;5.53;;;2.70;;
56667;SDS011;42542;48.360;10.958;2022-08-11T16:48:03;6.97;;;2.60;;
56667;SDS011;42542;48.360;10.958;2022-08-11T16:51:26;6.25;;;2.80;;
56667;SDS011;42542;48.360;10.958;2022-08-11T16:54:29;5.97;;;2.90;;
56667;SDS011;42542;48.360;10.958;2022-08-11T16:57:33;7.95;;;2.80;;
56667;SDS011;42542;48.360;10.958;2022-08-11T17:00:54;5.57;;;2.72;;
56667;SDS011;42542;48.360;10.958;2022-08-11T17:04:01;8.75;;;2.70;;
56667;SDS011;42542;48.360;10.958;2022-08-11T17:07:37;7.65;;;2.70;;
56667;SDS011;42542;48.360;10.958;2022-08-11T17:11:02;7.47;;;3.00;;
56667;SDS011;42542;48.360;10.958;2022-08-11T17:14:43;6.05;;;2.50;;
56667;SDS011;42542;48.360;10.958;2022-08-11T17:17:46;7.72;;;2.63;;
56667;SDS011;42542;48.360;10.958;2022-08-11T17:20:48;6.47;;;2.80;;
56667;SDS011;42542;48.360;10.958;2022-08-11T17:23:54;6.07;;;2.40;;
56667;SDS011;42542;48.360;10.958;2022-08-11T17:27:03;5.40;;;2.40;;
56667;SDS011;42542;48.360;10.958;2022-08-11T17:30:08;5.60;;;2.40;;
56667;SDS011;42542;48.360;10.958;2022-08-11T17:33:11;6.30;;;2.30;;
56667;SDS011;42542;48.360;10.958;2022-08-11T17:36:33;5.07;;;2.33;;
56667;SDS011;42542;48.360;10.958;2022-08-11T17:39:44;5.80;;;2.50;;
56667;SDS011;42542;48.360;10.958;2022-08-11T17:42:47;7.70;;;2.50;;
56667;SDS011;42542;48.360;10.958;2022-08-11T17:46:09;5.32;;;2.35;;
56667;SDS011;42542;48.360;10.958;2022-08-11T17:49:30;7.13;;;2.50;;
56667;SDS011;42542;48.360;10.958;2022-08-11T17:52:38;5.25;;;2.50;;
56667;SDS011;42542;48.360;10.958;2022-08-11T17:56:01;5.25;;;2.17;;
56667;SDS011;42542;48.360;10.958;2022-08-11T17:59:23;5.83;;;2.50;;
56667;SDS011;42542;48.360;10.958;2022-08-11T18:02:49;6.80;;;2.30;;
56667;SDS011;42542;48.360;10.958;2022-08-11T18:06:11;6.85;;;2.50;;
56667;SDS011;42542;48.360;10.958;2022-08-11T18:09:15;8.35;;;2.50;;
56667;SDS011;42542;48.360;10.958;2022-08-11T18:12:38;5.18;;;2.20;;
56667;SDS011;42542;48.360;10.958;2022-08-11T18:15:58;7.03;;;2.43;;
56667;SDS011;42542;48.360;10.958;2022-08-11T18:19:19;6.57;;;2.63;;
56667;SDS011;42542;48.360;10.958;2022-08-11T18:22:41;7.80;;;3.03;;
56667;SDS011;42542;48.360;10.958;2022-08-11T18:26:03;6.85;;;2.50;;
56667;SDS011;42542;48.360;10.958;2022-08-11T18:29:25;5.65;;;2.50;;
56667;SDS011;42542;48.360;10.958;2022-08-11T18:32:51;5.70;;;2.50;;
56667;SDS011;42542;48.360;10.958;2022-08-11T18:36:35;6.57;;;2.42;;
56667;SDS011;42542;48.360;10.958;2022-08-11T18:40:05;5.40;;;2.42;;
56667;SDS011;42542;48.360;10.958;2022-08-11T18:43:28;6.93;;;2.60;;
56667;SDS011;42542;48.360;10.958;2022-08-11T18:46:56;5.28;;;2.42;;
56667;SDS011;42542;48.360;10.958;2022-08-11T18:50:18;6.60;;;2.73;;
56667;SDS011;42542;48.360;10.958;2022-08-11T18:53:41;7.35;;;2.90;;
56667;SDS011;42542;48.360;10.958;2022-08-11T18:57:03;7.18;;;2.90;;
56667;SDS011;42542;48.360;10.958;2022-08-11T19:00:26;7.03;;;2.85;;
56667;SDS011;42542;48.360;10.958;2022-08-11T19:03:49;7.30;;;3.13;;
56667;SDS011;42542;48.360;10.958;2022-08-11T19:07:19;5.77;;;2.70;;
56667;SDS011;42542;48.360;10.958;2022-08-11T19:10:42;6.15;;;2.70;;
56667;SDS011;42542;48.360;10.958;2022-08-11T19:14:03;7.25;;;3.13;;
56667;SDS011;42542;48.360;10.958;2022-08-11T19:17:25;7.18;;;3.17;;
56667;SDS011;42542;48.360;10.958;2022-08-11T19:20:46;6.22;;;3.17;;
56667;SDS011;42542;48.360;10.958;2022-08-11T19:24:10;6.40;;;2.93;;
56667;SDS011;42542;48.360;10.958;2022-08-11T19:27:32;7.18;;;2.80;;
56667;SDS011;42542;48.360;10.958;2022-08-11T19:30:53;5.95;;;2.80;;
56667;SDS011;42542;48.360;10.958;2022-08-11T19:34:16;7.30;;;2.90;;
56667;SDS011;42542;48.360;10.958;2022-08-11T19:37:39;7.40;;;2.50;;
56667;SDS011;42542;48.360;10.958;2022-08-11T19:41:03;6.00;;;2.40;;
56667;SDS011;42542;48.360;10.958;2022-08-11T19:44:45;6.13;;;2.47;;
56667;SDS011;42542;48.360;10.958;2022-08-11T19:48:06;7.25;;;2.70;;
56667;SDS011;42542;48.360;10.958;2022-08-11T19:51:32;7.25;;;2.70;;
56667;SDS011;42542;48.360;10.958;2022-08-11T19:54:55;7.93;;;3.00;;
56667;SDS011;42542;48.360;10.958;2022-08-11T19:58:16;6.67;;;2.90;;
56667;SDS011;42542;48.360;10.958;2022-08-11T20:01:37;6.28;;;3.00;;
56667;SDS011;42542;48.360;10.958;2022-08-11T20:05:14;7.70;;;2.70;;
56667;SDS011;42542;48.360;10.958;2022-08-11T20:08:34;8.48;;;2.58;;
56667;SDS011;42542;48.360;10.958;2022-08-11T20:11:59;5.60;;;2.40;;
56667;SDS011;42542;48.360;10.958;2022-08-11T20:15:24;8.20;;;2.30;;
56667;SDS011;42542;48.360;10.958;2022-08-11T20:18:45;5.28;;;2.40;;
56667;SDS011;42542;48.360;10.958;2022-08-11T20:22:06;7.28;;;2.40;;
56667;SDS011;42542;48.360;10.958;2022-08-11T20:25:27;5.68;;;2.50;;
56667;SDS011;42542;48.360;10.958;2022-08-11T20:28:49;6.20;;;2.40;;
56667;SDS011;42542;48.360;10.958;2022-08-11T20:32:13;6.43;;;2.50;;
56667;SDS011;42542;48.360;10.958;2022-08-11T20:35:35;5.40;;;2.33;;
56667;SDS011;42542;48.360;10.958;2022-08-11T20:38:57;6.90;;;2.55;;
56667;SDS011;42542;48.360;10.958;2022-08-11T20:42:19;6.57;;;3.00;;
56667;SDS011;42542;48.360;10.958;2022-08-11T20:45:41;7.05;;;3.38;;
56667;SDS011;42542;48.360;10.958;2022-08-11T20:49:02;7.40;;;2.97;;
56667;SDS011;42542;48.360;10.958;2022-08-11T20:52:26;7.20;;;3.05;;
56667;SDS011;42542;48.360;10.958;2022-08-11T20:55:48;6.10;;;2.60;;
56667;SDS011;42542;48.360;10.958;2022-08-11T20:59:10;5.82;;;2.40;;
56667;SDS011;42542;48.360;10.958;2022-08-11T21:02:53;5.93;;;2.60;;
56667;SDS011;42542;48.360;10.958;2022-08-11T21:06:34;6.23;;;2.50;;
56667;SDS011;42542;48.360;10.958;2022-08-11T21:09:56;5.50;;;2.40;;
56667;SDS011;42542;48.360;10.958;2022-08-11T21:13:28;6.53;;;2.60;;
56667;SDS011;42542;48.360;10.958;2022-08-11T21:16:52;7.13;;;2.80;;
56667;SDS011;42542;48.360;10.958;2022-08-11T21:20:28;7.68;;;2.60;;
56667;SDS011;42542;48.360;10.958;2022-08-11T21:23:50;5.97;;;2.50;;
56667;SDS011;42542;48.360;10.958;2022-08-11T21:27:12;6.03;;;2.65;;
56667;SDS011;42542;48.360;10.958;2022-08-11T21:30:35;6.32;;;2.50;;
56667;SDS011;42542;48.360;10.958;2022-08-11T21:33:58;7.63;;;2.65;;
56667;SDS011;42542;48.360;10.958;2022-08-11T21:37:18;7.20;;;2.70;;
56667;SDS011;42542;48.360;10.958;2022-08-11T21:40:41;7.80;;;2.73;;
56667;SDS011;42542;48.360;10.958;2022-08-11T21:44:03;6.38;;;2.67;;
56667;SDS011;42542;48.360;10.958;2022-08-11T21:47:26;7.40;;;2.78;;
56667;SDS011;42542;48.360;10.958;2022-08-11T21:50:49;7.55;;;2.70;;
56667;SDS011;42542;48.360;10.958;2022-08-11T21:54:09;5.70;;;2.72;;
56667;SDS011;42542;48.360;10.958;2022-08-11T21:57:30;6.80;;;2.90;;
56667;SDS011;42542;48.360;10.958;2022-08-11T22:00:51;6.85;;;2.80;;
56667;SDS011;42542;48.360;10.958;2022-08-11T22:04:13;5.90;;;2.63;;
56667;SDS011;42542;48.360;10.958;2022-08-11T22:07:36;7.35;;;2.67;;
56667;SDS011;42542;48.360;10.958;2022-08-11T22:10:57;6.55;;;2.67;;
56667;SDS011;42542;48.360;10.958;2022-08-11T22:14:33;5.97;;;2.80;;
56667;SDS011;42542;48.360;10.958;2022-08-11T22:17:53;6.35;;;2.58;;
56667;SDS011;42542;48.360;10.958;2022-08-11T22:21:13;7.45;;;2.85;;
56667;SDS011;42542;48.360;10.958;2022-08-11T22:24:55;6.93;;;2.63;;
56667;SDS011;42542;48.360;10.958;2022-08-11T22:28:19;7.03;;;2.83;;
56667;SDS011;42542;48.360;10.958;2022-08-11T22:31:39;6.97;;;2.80;;
56667;SDS011;42542;48.360;10.958;2022-08-11T22:35:01;6.22;;;2.75;;
56667;SDS011;42542;48.360;10.958;2022-08-11T22:38:22;6.82;;;2.83;;
56667;SDS011;42542;48.360;10.958;2022-08-11T22:41:43;8.88;;;3.00;;